Amory, MS (38821)

2:36 AM CDT on July 08, 2015 (GMT -0500)
Amory | | Change Station
CLOSE
Current Station
Personal Weather Station
Location: Amory, MS
Elevation: 233 ft
Nearby Weather Stations
Active Advisory: Flood Warning

Elev 233 ft 33.98 °N, 88.49 °W | Updated 1 minute ago

Clear
Clear
72.2 °F
Feels Like 72.2 °F
N
3.0
Wind Variable Wind from SSW
Gusts 7.0 mph

Today
High -- | Low -- °F
--% Chance of Precip.
Yesterday
High -- | Low -- °F
Precip. -- in
5:49 AM 8:08 PM
Waning Gibbous, 56% visible
Pressure 30.10 in
Visibility 7.0 miles
Clouds Clear
Dew Point 70 °F
Humidity 93%
Rainfall 0.00 in
Snow Depth Not available.
UV 0 out of 12
Pollen 2.00 out of 12
Air Quality Not available.
Flu Activity Not available.
METAR KM40 080735Z AUTO 18005KT 7SM CLR 24/18 A3010 RMK AO2

More Conditions Fewer Conditions

Pressure 30.10 in
Visibility 7.0 miles
Clouds Clear
Dew Point 70 °F
Humidity 93%
Rainfall 0.00 in
Snow Depth Not available.
UV 0 out of 12
Pollen 2.00 out of 12
Air Quality Not available.
Flu Activity Not available.
METAR KM40 080735Z AUTO 18005KT 7SM CLR 24/18 A3010 RMK AO2

More Conditions Fewer Conditions

10-Day Weather Forecast

×

Almanac

Astronomy

Jul. 08, 2015 Rise Set
Actual Time
Civil Twilight
Nautical Twilight
Astronomical Twilight
Moon
Length of Visible Light
Length of Day
Tomorrow will be .
, % of the Moon is Illuminated

Today's Extremes

State Highs State Lows

Community

WunderPhotos

Upload Photos

1,836,064 photos uploaded!

WunderBlogs® & News

Nearby

Air Quality

  Air Quality AQ Index Pollutant
Not available.

Snow Depth

Station Depth Elevation

Earthquake Activity

City Distance Mag. Time & Date
Minimum magnitude displayed is 2.5.

Coastal Water Temperatures

Place Temperature

Stations

Nearby Weather Stations

Station Location Temp. Windchill Dew Point Humidity Wind Precip. Elev Updated Type
                   
Flood Warning
Statement as of 9:16 PM CDT on July 07, 2015

The Flood Warning continues for
the Tombigbee river at Bigbee
* until Tuesday July 07.
* At 08 PM Tuesday the stage was 14.1 feet.
* Flood stage is 14.0 feet.
* At 14.0 feet... flooding of low lying agricltural land is occurring.


Lat... Lon 3409 8852 3409 8840 3399 8852 3406 8857






915 PM CDT Tue Jul 7 2015

The Flood Warning continues for
the Buttahatchie river near Aberdeen
* until Wednesday July 08.
* At 08 PM Tuesday the stage was 15.0 feet.
* Minor flooding is occurring and minor flooding is forecast.
* Flood stage is 13.0 feet.
* At 15.0 feet... water is covering a portion of airbase Road located
on the West Bank of the river. Low lying farm land is flooded


Lat... Lon 3409 8829 3409 8821 3373 8826 3365 8843
      3370 8844 3375 8839